AUA2385 LOWS-LYTV
Flight info
| Callsign | AUA2385 |
|---|---|
| Flight time | 1h 7m |
| Altitude | 37000 |
| Route | VERDA DCT DARZA DCT NERRA DCT TIBRI L187 TAZ |
| Aircraft | A320/M-SDE3FGHIRWY/LB1 |
Departure
| Time | 2026-05-08 19:59 |
|---|---|
| Airport | Salzburg Airport (LOWS) |
Arrival
| Time | 2026-05-08 21:07 |
|---|---|
| Airport | Tivat Airport (LYTV) |
| Time | Latitude | Longitude | Altitude | Speed | Heading |
|---|---|---|---|---|---|
| 2026-05-08 19:41 | 47.79177 | 13.00120 | 1420 ft | 0 kts | 101° |
| 2026-05-08 19:53 | 47.79178 | 13.00114 | 1420 ft | 0 kts | 101° |
| 2026-05-08 19:55 | 47.79167 | 13.00107 | 1420 ft | 6 kts | 232° |
| 2026-05-08 19:55 | 47.79175 | 13.00042 | 1420 ft | 6 kts | 291° |
| 2026-05-08 19:55 | 47.79225 | 12.99984 | 1420 ft | 16 kts | 336° |
| 2026-05-08 19:55 | 47.79316 | 12.99959 | 1420 ft | 13 kts | 28° |
| 2026-05-08 19:56 | 47.79368 | 13.00076 | 1420 ft | 14 kts | 39° |
| 2026-05-08 19:56 | 47.79462 | 13.00047 | 1420 ft | 15 kts | 337° |
| 2026-05-08 19:56 | 47.79563 | 12.99983 | 1420 ft | 16 kts | 336° |
| 2026-05-08 19:56 | 47.79673 | 12.99912 | 1420 ft | 18 kts | 336° |
| 2026-05-08 19:57 | 47.79792 | 12.99838 | 1420 ft | 19 kts | 338° |
| 2026-05-08 19:57 | 47.79922 | 12.99754 | 1420 ft | 22 kts | 335° |
| 2026-05-08 19:57 | 47.80064 | 12.99661 | 1420 ft | 23 kts | 338° |
| 2026-05-08 19:57 | 47.80210 | 12.99584 | 1420 ft | 19 kts | 354° |
| 2026-05-08 19:58 | 47.80240 | 12.99600 | 1421 ft | 1 kts | 32° |
| 2026-05-08 19:58 | 47.80270 | 12.99665 | 1421 ft | 10 kts | 71° |
| 2026-05-08 19:58 | 47.80266 | 12.99790 | 1420 ft | 15 kts | 124° |
| 2026-05-08 19:58 | 47.80159 | 12.99871 | 1421 ft | 32 kts | 157° |
| 2026-05-08 19:59 | 47.79705 | 13.00158 | 1422 ft | 105 kts | 157° |
| 2026-05-08 19:59 | 47.78839 | 13.00706 | 1424 ft | 162 kts | 156° |
| 2026-05-08 19:59 | 47.77802 | 13.01408 | 1984 ft | 163 kts | 148° |
| 2026-05-08 19:59 | 47.76860 | 13.02309 | 2653 ft | 164 kts | 143° |
| 2026-05-08 20:00 | 47.75888 | 13.03313 | 3038 ft | 180 kts | 143° |
| 2026-05-08 20:00 | 47.74811 | 13.04441 | 3367 ft | 198 kts | 143° |
| 2026-05-08 20:00 | 47.73631 | 13.05658 | 3734 ft | 217 kts | 143° |
| 2026-05-08 20:00 | 47.72334 | 13.06997 | 4193 ft | 231 kts | 144° |
| 2026-05-08 20:01 | 47.70979 | 13.08260 | 5069 ft | 230 kts | 150° |
| 2026-05-08 20:01 | 47.69564 | 13.09403 | 5875 ft | 232 kts | 151° |
| 2026-05-08 20:01 | 47.68127 | 13.10538 | 6647 ft | 236 kts | 152° |
| 2026-05-08 20:01 | 47.66643 | 13.11633 | 7367 ft | 240 kts | 154° |
| 2026-05-08 20:02 | 47.65132 | 13.12693 | 8128 ft | 242 kts | 155° |
| 2026-05-08 20:02 | 47.63598 | 13.13769 | 8873 ft | 246 kts | 155° |
| 2026-05-08 20:02 | 47.62062 | 13.14940 | 9586 ft | 251 kts | 147° |
| 2026-05-08 20:02 | 47.60698 | 13.16580 | 10302 ft | 257 kts | 135° |
| 2026-05-08 20:03 | 47.59536 | 13.18750 | 10578 ft | 281 kts | 122° |
| 2026-05-08 20:03 | 47.58354 | 13.21194 | 10808 ft | 304 kts | 136° |
| 2026-05-08 20:03 | 47.56587 | 13.23093 | 11005 ft | 326 kts | 148° |
| 2026-05-08 20:03 | 47.54591 | 13.24917 | 11176 ft | 349 kts | 149° |
| 2026-05-08 20:04 | 47.52449 | 13.26829 | 11323 ft | 370 kts | 150° |
| 2026-05-08 20:04 | 47.50208 | 13.28813 | 11779 ft | 379 kts | 150° |
| 2026-05-08 20:04 | 47.48699 | 13.30147 | 12180 ft | 383 kts | 150° |
| 2026-05-08 20:04 | 47.46404 | 13.32180 | 12812 ft | 387 kts | 150° |
| 2026-05-08 20:05 | 47.44083 | 13.34238 | 13457 ft | 391 kts | 149° |
| 2026-05-08 20:05 | 47.41742 | 13.36322 | 14067 ft | 394 kts | 149° |
| 2026-05-08 20:05 | 47.39385 | 13.38427 | 14642 ft | 397 kts | 149° |
| 2026-05-08 20:05 | 47.37014 | 13.40549 | 15221 ft | 400 kts | 149° |
| 2026-05-08 20:06 | 47.34623 | 13.42686 | 15795 ft | 403 kts | 149° |
| 2026-05-08 20:06 | 47.32207 | 13.44835 | 16377 ft | 407 kts | 149° |
| 2026-05-08 20:06 | 47.29778 | 13.46989 | 16952 ft | 410 kts | 149° |
| 2026-05-08 20:06 | 47.27324 | 13.49162 | 17537 ft | 413 kts | 150° |
| 2026-05-08 20:07 | 47.24853 | 13.51346 | 18075 ft | 416 kts | 150° |
| 2026-05-08 20:07 | 47.22364 | 13.53541 | 18585 ft | 419 kts | 150° |
| 2026-05-08 20:07 | 47.19856 | 13.55755 | 19039 ft | 421 kts | 150° |
| 2026-05-08 20:07 | 47.17337 | 13.57978 | 19476 ft | 424 kts | 150° |
| 2026-05-08 20:08 | 47.14832 | 13.60189 | 19922 ft | 426 kts | 150° |
| 2026-05-08 20:08 | 47.12281 | 13.62435 | 20369 ft | 428 kts | 150° |
| 2026-05-08 20:08 | 47.09716 | 13.64686 | 20801 ft | 431 kts | 150° |
| 2026-05-08 20:08 | 47.07137 | 13.66946 | 21213 ft | 433 kts | 150° |
| 2026-05-08 20:09 | 47.04543 | 13.69218 | 21614 ft | 435 kts | 150° |
| 2026-05-08 20:09 | 47.01938 | 13.71496 | 22016 ft | 437 kts | 150° |
| 2026-05-08 20:09 | 46.99322 | 13.73784 | 22389 ft | 439 kts | 150° |
| 2026-05-08 20:09 | 46.96689 | 13.76088 | 22749 ft | 441 kts | 150° |
| 2026-05-08 20:10 | 46.94047 | 13.78397 | 23110 ft | 444 kts | 150° |
| 2026-05-08 20:10 | 46.91392 | 13.80715 | 23474 ft | 446 kts | 150° |
| 2026-05-08 20:10 | 46.88720 | 13.83046 | 23802 ft | 448 kts | 150° |
| 2026-05-08 20:10 | 46.86039 | 13.85382 | 24078 ft | 450 kts | 150° |
| 2026-05-08 20:11 | 46.83347 | 13.87727 | 24377 ft | 451 kts | 150° |
| 2026-05-08 20:11 | 46.80650 | 13.90077 | 24661 ft | 453 kts | 150° |
| 2026-05-08 20:11 | 46.77939 | 13.92433 | 24937 ft | 454 kts | 151° |
| 2026-05-08 20:11 | 46.75219 | 13.94793 | 25178 ft | 456 kts | 151° |
| 2026-05-08 20:12 | 46.72492 | 13.97155 | 25442 ft | 456 kts | 152° |
| 2026-05-08 20:12 | 46.69754 | 13.99516 | 25695 ft | 458 kts | 152° |
| 2026-05-08 20:12 | 46.67008 | 14.01879 | 25946 ft | 459 kts | 152° |
| 2026-05-08 20:12 | 46.64257 | 14.04246 | 26164 ft | 460 kts | 152° |
| 2026-05-08 20:13 | 46.61495 | 14.06619 | 26390 ft | 462 kts | 152° |
| 2026-05-08 20:13 | 46.58729 | 14.08991 | 26686 ft | 461 kts | 152° |
| 2026-05-08 20:13 | 46.56006 | 14.11325 | 26995 ft | 460 kts | 153° |
| 2026-05-08 20:13 | 46.53255 | 14.13684 | 27324 ft | 459 kts | 153° |
| 2026-05-08 20:14 | 46.50511 | 14.16035 | 27644 ft | 458 kts | 153° |
| 2026-05-08 20:14 | 46.47768 | 14.18383 | 27956 ft | 457 kts | 153° |
| 2026-05-08 20:14 | 46.45031 | 14.20725 | 28290 ft | 456 kts | 153° |
| 2026-05-08 20:14 | 46.42305 | 14.23054 | 28607 ft | 455 kts | 153° |
| 2026-05-08 20:15 | 46.39580 | 14.25382 | 28985 ft | 453 kts | 153° |
| 2026-05-08 20:15 | 46.36868 | 14.27698 | 29340 ft | 452 kts | 153° |
| 2026-05-08 20:15 | 46.34164 | 14.30003 | 29724 ft | 450 kts | 153° |
| 2026-05-08 20:15 | 46.31464 | 14.32298 | 30114 ft | 449 kts | 153° |
| 2026-05-08 20:16 | 46.28773 | 14.34581 | 30439 ft | 448 kts | 153° |
| 2026-05-08 20:16 | 46.26090 | 14.36853 | 30720 ft | 447 kts | 153° |
| 2026-05-08 20:16 | 46.23407 | 14.39121 | 30992 ft | 447 kts | 153° |
| 2026-05-08 20:16 | 46.20725 | 14.41387 | 31263 ft | 447 kts | 153° |
| 2026-05-08 20:17 | 46.18043 | 14.43654 | 31560 ft | 447 kts | 153° |
| 2026-05-08 20:17 | 46.15361 | 14.45917 | 31867 ft | 446 kts | 153° |
| 2026-05-08 20:17 | 46.12682 | 14.48175 | 32107 ft | 446 kts | 153° |
| 2026-05-08 20:17 | 46.10007 | 14.50426 | 32366 ft | 446 kts | 153° |
| 2026-05-08 20:18 | 46.07329 | 14.52679 | 32639 ft | 445 kts | 153° |
| 2026-05-08 20:18 | 46.04658 | 14.54926 | 32911 ft | 445 kts | 153° |
| 2026-05-08 20:18 | 46.01988 | 14.57169 | 33142 ft | 445 kts | 153° |
| 2026-05-08 20:18 | 45.99308 | 14.59413 | 33350 ft | 447 kts | 154° |
| 2026-05-08 20:19 | 45.96618 | 14.61659 | 33582 ft | 447 kts | 154° |
| 2026-05-08 20:19 | 45.93967 | 14.63873 | 33839 ft | 447 kts | 154° |
| 2026-05-08 20:19 | 45.91281 | 14.66118 | 34097 ft | 447 kts | 154° |
| 2026-05-08 20:19 | 45.88595 | 14.68364 | 34318 ft | 446 kts | 154° |
| 2026-05-08 20:20 | 45.85911 | 14.70603 | 34527 ft | 447 kts | 154° |
| 2026-05-08 20:20 | 45.83220 | 14.72838 | 34722 ft | 447 kts | 154° |
| 2026-05-08 20:20 | 45.80534 | 14.75067 | 34985 ft | 446 kts | 154° |
| 2026-05-08 20:20 | 45.77850 | 14.77298 | 35203 ft | 446 kts | 154° |
| 2026-05-08 20:21 | 45.75163 | 14.79528 | 35387 ft | 446 kts | 154° |
| 2026-05-08 20:21 | 45.72476 | 14.81757 | 35531 ft | 447 kts | 153° |
| 2026-05-08 20:21 | 45.69783 | 14.83993 | 35706 ft | 447 kts | 153° |
| 2026-05-08 20:21 | 45.67091 | 14.86227 | 35875 ft | 448 kts | 153° |
| 2026-05-08 20:22 | 45.64395 | 14.88461 | 36037 ft | 448 kts | 153° |
| 2026-05-08 20:22 | 45.61689 | 14.90697 | 36197 ft | 449 kts | 154° |
| 2026-05-08 20:22 | 45.58983 | 14.92925 | 36359 ft | 449 kts | 154° |
| 2026-05-08 20:22 | 45.56268 | 14.95157 | 36485 ft | 450 kts | 154° |
| 2026-05-08 20:23 | 45.53548 | 14.97392 | 36601 ft | 452 kts | 154° |
| 2026-05-08 20:23 | 45.50828 | 14.99629 | 36783 ft | 451 kts | 154° |
| 2026-05-08 20:23 | 45.48187 | 15.02068 | 36969 ft | 453 kts | 147° |
| 2026-05-08 20:23 | 45.45637 | 15.04713 | 37068 ft | 455 kts | 147° |
| 2026-05-08 20:24 | 45.40482 | 15.10038 | 37081 ft | 460 kts | 147° |
| 2026-05-08 20:24 | 45.35280 | 15.15377 | 37073 ft | 462 kts | 148° |
| 2026-05-08 20:25 | 45.30059 | 15.20739 | 37072 ft | 464 kts | 147° |
| 2026-05-08 20:25 | 45.24822 | 15.26115 | 37077 ft | 465 kts | 148° |
| 2026-05-08 20:26 | 45.19578 | 15.31481 | 37087 ft | 465 kts | 148° |
| 2026-05-08 20:26 | 45.14324 | 15.36840 | 37083 ft | 465 kts | 148° |
| 2026-05-08 20:27 | 45.09067 | 15.42187 | 37075 ft | 466 kts | 148° |
| 2026-05-08 20:27 | 45.03827 | 15.47508 | 37079 ft | 467 kts | 148° |
| 2026-05-08 20:28 | 44.98512 | 15.52898 | 37082 ft | 467 kts | 148° |
| 2026-05-08 20:28 | 44.93268 | 15.58209 | 37093 ft | 467 kts | 148° |
| 2026-05-08 20:29 | 44.87990 | 15.63536 | 37090 ft | 467 kts | 148° |
| 2026-05-08 20:29 | 44.82698 | 15.68852 | 37085 ft | 467 kts | 148° |
| 2026-05-08 20:30 | 44.77391 | 15.74169 | 37072 ft | 468 kts | 148° |
| 2026-05-08 20:30 | 44.72082 | 15.79482 | 37091 ft | 468 kts | 148° |
| 2026-05-08 20:31 | 44.66772 | 15.84792 | 37099 ft | 468 kts | 148° |
| 2026-05-08 20:31 | 44.61465 | 15.90092 | 37082 ft | 469 kts | 148° |
| 2026-05-08 20:32 | 44.56134 | 15.95389 | 37083 ft | 469 kts | 148° |
| 2026-05-08 20:32 | 44.50799 | 16.00675 | 37080 ft | 470 kts | 148° |
| 2026-05-08 20:33 | 44.45504 | 16.05924 | 37087 ft | 469 kts | 148° |
| 2026-05-08 20:33 | 44.40171 | 16.11199 | 37072 ft | 470 kts | 149° |
| 2026-05-08 20:34 | 44.34824 | 16.16469 | 37069 ft | 471 kts | 149° |
| 2026-05-08 20:35 | 44.26774 | 16.24365 | 37068 ft | 471 kts | 149° |
| 2026-05-08 20:35 | 44.21407 | 16.29628 | 37086 ft | 471 kts | 149° |
| 2026-05-08 20:36 | 44.16038 | 16.34884 | 37059 ft | 472 kts | 149° |
| 2026-05-08 20:36 | 44.10649 | 16.40146 | 37054 ft | 473 kts | 149° |
| 2026-05-08 20:37 | 44.05249 | 16.45398 | 37063 ft | 474 kts | 149° |
| 2026-05-08 20:37 | 43.99870 | 16.50616 | 37059 ft | 474 kts | 149° |
| 2026-05-08 20:38 | 43.94455 | 16.55859 | 37057 ft | 475 kts | 149° |
| 2026-05-08 20:38 | 43.89030 | 16.61101 | 37053 ft | 476 kts | 149° |
| 2026-05-08 20:39 | 43.83603 | 16.66347 | 37044 ft | 476 kts | 149° |
| 2026-05-08 20:39 | 43.78163 | 16.71586 | 37037 ft | 476 kts | 149° |
| 2026-05-08 20:40 | 43.72714 | 16.76812 | 37026 ft | 477 kts | 150° |
| 2026-05-08 20:40 | 43.67247 | 16.82051 | 37036 ft | 478 kts | 150° |
| 2026-05-08 20:41 | 43.61766 | 16.87291 | 37043 ft | 479 kts | 150° |
| 2026-05-08 20:41 | 43.56308 | 16.92488 | 37043 ft | 479 kts | 150° |
| 2026-05-08 20:42 | 43.50817 | 16.97713 | 37048 ft | 480 kts | 150° |
| 2026-05-08 20:42 | 43.45319 | 17.02939 | 37053 ft | 480 kts | 150° |
| 2026-05-08 20:43 | 43.39815 | 17.08153 | 37047 ft | 480 kts | 150° |
| 2026-05-08 20:43 | 43.34310 | 17.13356 | 37061 ft | 480 kts | 150° |
| 2026-05-08 20:44 | 43.28794 | 17.18548 | 37032 ft | 481 kts | 150° |
| 2026-05-08 20:44 | 43.23271 | 17.23742 | 37028 ft | 482 kts | 150° |
| 2026-05-08 20:45 | 43.17741 | 17.28950 | 37029 ft | 483 kts | 150° |
| 2026-05-08 20:45 | 43.12190 | 17.34157 | 37028 ft | 483 kts | 150° |
| 2026-05-08 20:46 | 43.06640 | 17.39334 | 37016 ft | 483 kts | 150° |
| 2026-05-08 20:46 | 43.01080 | 17.44514 | 37014 ft | 484 kts | 150° |
| 2026-05-08 20:47 | 42.95512 | 17.49702 | 36799 ft | 485 kts | 150° |
| 2026-05-08 20:47 | 42.92801 | 17.52340 | 36542 ft | 488 kts | 144° |
| 2026-05-08 20:47 | 42.90306 | 17.55510 | 36285 ft | 493 kts | 135° |
| 2026-05-08 20:47 | 42.88175 | 17.59190 | 36002 ft | 497 kts | 126° |
| 2026-05-08 20:48 | 42.86260 | 17.63145 | 35157 ft | 502 kts | 126° |
| 2026-05-08 20:48 | 42.84338 | 17.67135 | 34229 ft | 506 kts | 126° |
| 2026-05-08 20:48 | 42.82401 | 17.71155 | 33172 ft | 510 kts | 125° |
| 2026-05-08 20:48 | 42.80449 | 17.75190 | 32178 ft | 511 kts | 125° |
| 2026-05-08 20:49 | 42.78482 | 17.79245 | 31083 ft | 514 kts | 125° |
| 2026-05-08 20:49 | 42.76515 | 17.83296 | 30026 ft | 514 kts | 125° |
| 2026-05-08 20:49 | 42.74543 | 17.87360 | 28824 ft | 513 kts | 125° |
| 2026-05-08 20:49 | 42.72578 | 17.91405 | 27561 ft | 512 kts | 125° |
| 2026-05-08 20:50 | 42.70616 | 17.95432 | 26289 ft | 510 kts | 125° |
| 2026-05-08 20:50 | 42.68654 | 17.99446 | 25131 ft | 508 kts | 125° |
| 2026-05-08 20:50 | 42.66717 | 18.03407 | 24537 ft | 500 kts | 125° |
| 2026-05-08 20:50 | 42.64801 | 18.07325 | 23997 ft | 495 kts | 125° |
| 2026-05-08 20:51 | 42.62897 | 18.11213 | 22878 ft | 492 kts | 125° |
| 2026-05-08 20:51 | 42.61016 | 18.15049 | 21850 ft | 482 kts | 124° |
| 2026-05-08 20:51 | 42.59169 | 18.18812 | 20682 ft | 475 kts | 125° |
| 2026-05-08 20:51 | 42.57346 | 18.22513 | 19629 ft | 468 kts | 125° |
| 2026-05-08 20:52 | 42.55552 | 18.26150 | 18623 ft | 460 kts | 125° |
| 2026-05-08 20:52 | 42.53771 | 18.29751 | 17591 ft | 458 kts | 125° |
| 2026-05-08 20:52 | 42.52009 | 18.33307 | 16682 ft | 448 kts | 124° |
| 2026-05-08 20:52 | 42.50309 | 18.36743 | 15990 ft | 431 kts | 124° |
| 2026-05-08 20:53 | 42.48680 | 18.40042 | 15252 ft | 425 kts | 124° |
| 2026-05-08 20:53 | 42.47033 | 18.43378 | 14561 ft | 424 kts | 124° |
| 2026-05-08 20:53 | 42.45402 | 18.46669 | 13991 ft | 418 kts | 124° |
| 2026-05-08 20:53 | 42.43790 | 18.49912 | 13374 ft | 412 kts | 124° |
| 2026-05-08 20:54 | 42.42198 | 18.53112 | 12742 ft | 407 kts | 124° |
| 2026-05-08 20:54 | 42.41137 | 18.55248 | 12311 ft | 403 kts | 124° |
| 2026-05-08 20:54 | 42.39591 | 18.58321 | 11686 ft | 398 kts | 125° |
| 2026-05-08 20:54 | 42.38035 | 18.61336 | 11465 ft | 382 kts | 125° |
| 2026-05-08 20:55 | 42.36530 | 18.64200 | 11337 ft | 365 kts | 126° |
| 2026-05-08 20:55 | 42.35089 | 18.66920 | 11206 ft | 348 kts | 126° |
| 2026-05-08 20:55 | 42.33496 | 18.69284 | 11087 ft | 334 kts | 139° |
| 2026-05-08 20:55 | 42.31622 | 18.71014 | 10965 ft | 320 kts | 152° |
| 2026-05-08 20:56 | 42.29592 | 18.72107 | 10842 ft | 309 kts | 164° |
| 2026-05-08 20:56 | 42.27512 | 18.72587 | 10720 ft | 298 kts | 174° |
| 2026-05-08 20:56 | 42.25477 | 18.72821 | 10523 ft | 290 kts | 175° |
| 2026-05-08 20:56 | 42.23470 | 18.73050 | 10207 ft | 288 kts | 175° |
| 2026-05-08 20:57 | 42.21474 | 18.73281 | 9868 ft | 286 kts | 175° |
| 2026-05-08 20:57 | 42.19497 | 18.73510 | 9489 ft | 284 kts | 175° |
| 2026-05-08 20:57 | 42.17538 | 18.73733 | 9047 ft | 280 kts | 174° |
| 2026-05-08 20:57 | 42.15604 | 18.73962 | 8355 ft | 278 kts | 171° |
| 2026-05-08 20:58 | 42.13746 | 18.74598 | 7678 ft | 275 kts | 157° |
| 2026-05-08 20:58 | 42.12100 | 18.75862 | 7055 ft | 272 kts | 136° |
| 2026-05-08 20:58 | 42.10972 | 18.77822 | 6697 ft | 268 kts | 114° |
| 2026-05-08 20:58 | 42.10500 | 18.80241 | 6318 ft | 264 kts | 91° |
| 2026-05-08 20:59 | 42.10778 | 18.82621 | 5938 ft | 262 kts | 69° |
| 2026-05-08 20:59 | 42.11738 | 18.84685 | 5558 ft | 262 kts | 46° |
| 2026-05-08 20:59 | 42.13224 | 18.86086 | 5197 ft | 264 kts | 24° |
| 2026-05-08 20:59 | 42.15018 | 18.86597 | 4860 ft | 266 kts | 1° |
| 2026-05-08 21:00 | 42.16831 | 18.86113 | 4494 ft | 269 kts | 340° |
| 2026-05-08 21:00 | 42.18573 | 18.85182 | 4133 ft | 268 kts | 339° |
| 2026-05-08 21:00 | 42.20302 | 18.84256 | 3792 ft | 267 kts | 339° |
| 2026-05-08 21:00 | 42.22025 | 18.83333 | 3434 ft | 265 kts | 339° |
| 2026-05-08 21:01 | 42.23720 | 18.82427 | 3076 ft | 257 kts | 339° |
| 2026-05-08 21:01 | 42.25339 | 18.81563 | 2724 ft | 244 kts | 339° |
| 2026-05-08 21:01 | 42.26872 | 18.80735 | 2411 ft | 230 kts | 336° |
| 2026-05-08 21:01 | 42.28108 | 18.79542 | 2326 ft | 212 kts | 314° |
| 2026-05-08 21:02 | 42.29057 | 18.78092 | 2259 ft | 201 kts | 310° |
| 2026-05-08 21:02 | 42.29916 | 18.76694 | 2209 ft | 186 kts | 310° |
| 2026-05-08 21:02 | 42.30704 | 18.75404 | 2118 ft | 171 kts | 310° |
| 2026-05-08 21:02 | 42.31450 | 18.74184 | 2031 ft | 167 kts | 310° |
| 2026-05-08 21:03 | 42.32184 | 18.72984 | 1955 ft | 164 kts | 310° |
| 2026-05-08 21:03 | 42.32909 | 18.71794 | 1883 ft | 163 kts | 310° |
| 2026-05-08 21:03 | 42.33633 | 18.70611 | 1810 ft | 163 kts | 310° |
| 2026-05-08 21:03 | 42.34422 | 18.69526 | 1723 ft | 162 kts | 330° |
| 2026-05-08 21:04 | 42.35468 | 18.68949 | 1731 ft | 163 kts | 343° |
| 2026-05-08 21:04 | 42.36541 | 18.68475 | 1709 ft | 159 kts | 340° |
| 2026-05-08 21:04 | 42.37535 | 18.67997 | 1520 ft | 147 kts | 341° |
| 2026-05-08 21:04 | 42.38493 | 18.67569 | 1291 ft | 144 kts | 342° |
| 2026-05-08 21:05 | 42.39407 | 18.67162 | 1118 ft | 138 kts | 342° |
| 2026-05-08 21:05 | 42.40340 | 18.66739 | 1021 ft | 139 kts | 341° |
| 2026-05-08 21:05 | 42.41269 | 18.66316 | 994 ft | 141 kts | 341° |
| 2026-05-08 21:05 | 42.42199 | 18.66039 | 1008 ft | 141 kts | 5° |
| 2026-05-08 21:06 | 42.43010 | 18.66709 | 896 ft | 145 kts | 62° |
| 2026-05-08 21:06 | 42.43045 | 18.68033 | 671 ft | 145 kts | 105° |
| 2026-05-08 21:06 | 42.42739 | 18.69308 | 450 ft | 138 kts | 114° |
| 2026-05-08 21:06 | 42.42163 | 18.70353 | 277 ft | 142 kts | 139° |
| 2026-05-08 21:07 | 42.41410 | 18.71216 | 75 ft | 142 kts | 139° |
| 2026-05-08 21:07 | 42.40715 | 18.72037 | 1 ft | 116 kts | 139° |
| 2026-05-08 21:07 | 42.40316 | 18.72496 | 2 ft | 43 kts | 144° |
| 2026-05-08 21:07 | 42.40266 | 18.72585 | 2 ft | 4 kts | 351° |
| 2026-05-08 21:08 | 42.40307 | 18.72526 | 2 ft | 16 kts | 314° |
| 2026-05-08 21:08 | 42.40395 | 18.72416 | 1 ft | 19 kts | 319° |
| 2026-05-08 21:08 | 42.40501 | 18.72289 | 0 ft | 21 kts | 318° |
| 2026-05-08 21:08 | 42.40618 | 18.72150 | -1 ft | 24 kts | 319° |
| 2026-05-08 21:09 | 42.40745 | 18.71998 | 1 ft | 25 kts | 319° |
| 2026-05-08 21:09 | 42.40878 | 18.71842 | 2 ft | 26 kts | 319° |
| 2026-05-08 21:09 | 42.40975 | 18.71820 | 4 ft | 15 kts | 43° |
| 2026-05-08 21:09 | 42.41044 | 18.71833 | 2 ft | 11 kts | 320° |
| 2026-05-08 21:10 | 42.41099 | 18.71768 | 0 ft | 10 kts | 317° |
| 2026-05-08 21:10 | 42.41146 | 18.71711 | -1 ft | 8 kts | 318° |
| 2026-05-08 21:10 | 42.41184 | 18.71665 | 0 ft | 6 kts | 319° |
| 2026-05-08 21:10 | 42.41209 | 18.71636 | 1 ft | 0 kts | 320° |
| 2026-05-08 21:12 | 42.41228 | 18.71614 | 3 ft | 8 kts | 320° |
| 2026-05-08 21:12 | 42.41270 | 18.71565 | 2 ft | 8 kts | 318° |
| 2026-05-08 21:12 | 42.41308 | 18.71526 | 1 ft | 4 kts | 340° |
| 2026-05-08 21:12 | 42.41318 | 18.71544 | 1 ft | 3 kts | 50° |
| 2026-05-08 21:13 | 42.41333 | 18.71576 | 1 ft | 5 kts | 73° |
| 2026-05-08 21:13 | 42.41317 | 18.71591 | 1 ft | 2 kts | 170° |
| 2026-05-08 21:13 | 42.41311 | 18.71593 | 1 ft | 0 kts | 162° |
| 2026-05-08 21:17 | 42.41310 | 18.71593 | 1 ft | 0 kts | 162° |